createdAt,value
2018-02-20T00:00:25.498Z,82.06
2018-02-20T00:02:53.806Z,81.97
2018-02-20T00:05:22.226Z,82.06
2018-02-20T00:07:50.655Z,81.98
2018-02-20T00:10:18.986Z,82.08
2018-02-20T00:12:47.355Z,82.18
2018-02-20T00:15:15.697Z,82.37
2018-02-20T00:17:44.022Z,82.36
2018-02-20T00:20:12.386Z,82.06
2018-02-20T00:22:40.714Z,81.89
2018-02-20T00:25:09.064Z,81.53
2018-02-20T00:27:37.391Z,81.25
2018-02-20T00:30:05.738Z,81.08
2018-02-20T00:32:34.061Z,80.74
2018-02-20T00:35:02.442Z,80.42
2018-02-20T00:37:30.825Z,80.22
2018-02-20T00:39:59.198Z,80.26
2018-02-20T00:42:27.595Z,80.20
2018-02-20T00:44:55.954Z,80.19
2018-02-20T00:47:24.334Z,80.71
2018-02-20T00:49:52.711Z,80.39
2018-02-20T00:52:21.085Z,81.29
2018-02-20T00:54:49.434Z,81.47
2018-02-20T00:57:17.846Z,81.42
2018-02-20T00:59:46.193Z,81.34
2018-02-20T01:02:14.601Z,81.38
2018-02-20T01:04:42.974Z,82.34
2018-02-20T01:07:11.298Z,82.75
2018-02-20T01:09:39.726Z,82.97
2018-02-20T01:12:08.102Z,83.28
2018-02-20T01:14:36.446Z,83.46
2018-02-20T01:17:04.860Z,83.66
2018-02-20T01:19:33.205Z,83.88
2018-02-20T01:22:01.530Z,83.87
2018-02-20T01:24:29.874Z,83.79
2018-02-20T01:26:58.198Z,83.36
2018-02-20T01:29:26.642Z,82.92
2018-02-20T01:31:54.970Z,82.21
2018-02-20T01:34:23.393Z,81.35
2018-02-20T01:36:51.722Z,80.69
2018-02-20T01:39:20.153Z,80.46
2018-02-20T01:41:48.526Z,80.40
2018-02-20T01:44:16.906Z,80.62
2018-02-20T01:46:45.281Z,81.25
2018-02-20T01:49:13.634Z,82.00
2018-02-20T01:51:41.962Z,82.60
2018-02-20T01:54:10.305Z,82.72
2018-02-20T01:56:38.690Z,82.75
2018-02-20T01:59:07.066Z,82.91
2018-02-20T02:01:35.418Z,83.25
2018-02-20T02:04:03.822Z,83.99
2018-02-20T02:06:32.198Z,84.79
2018-02-20T02:09:00.521Z,85.24
2018-02-20T02:11:28.955Z,85.60
2018-02-20T02:13:57.353Z,85.84
2018-02-20T02:16:25.706Z,86.02
2018-02-20T02:18:54.038Z,86.15
2018-02-20T02:21:22.466Z,85.91
2018-02-20T02:23:50.863Z,85.96
2018-02-20T02:26:19.218Z,85.91
2018-02-20T02:28:47.598Z,85.92
2018-02-20T02:31:15.958Z,86.58
2018-02-20T02:33:44.351Z,86.87
2018-02-20T02:36:12.694Z,87.12
2018-02-20T02:38:41.014Z,86.69
2018-02-20T02:41:09.383Z,86.22
2018-02-20T02:43:37.754Z,85.64
2018-02-20T02:46:06.134Z,85.27
2018-02-20T02:48:34.511Z,85.09
2018-02-20T02:51:02.857Z,84.96
2018-02-20T02:53:31.187Z,84.68
2018-02-20T02:55:59.529Z,84.42
2018-02-20T02:58:27.914Z,84.01
2018-02-20T03:00:56.493Z,83.32
2018-02-20T03:03:24.776Z,82.82
2018-02-20T03:05:53.118Z,82.18
2018-02-20T03:08:21.442Z,81.79
2018-02-20T03:10:49.802Z,81.38
2018-02-20T03:13:18.178Z,81.56
2018-02-20T03:15:46.522Z,81.76
2018-02-20T03:18:14.846Z,81.88
2018-02-20T03:20:43.210Z,81.92
2018-02-20T03:23:11.534Z,82.16
2018-02-20T03:25:39.966Z,82.67
2018-02-20T03:28:08.303Z,82.61
2018-02-20T03:30:36.719Z,82.58
2018-02-20T03:33:05.041Z,82.38
2018-02-20T03:35:33.387Z,82.35
2018-02-20T03:38:01.803Z,82.64
2018-02-20T03:40:30.131Z,83.00
2018-02-20T03:42:58.462Z,84.07
2018-02-20T03:45:26.809Z,84.89
2018-02-20T03:47:55.154Z,85.50
2018-02-20T03:50:23.506Z,85.38
2018-02-20T03:52:51.826Z,85.35
2018-02-20T03:55:20.151Z,85.88
2018-02-20T03:57:48.557Z,86.24
2018-02-20T04:00:16.938Z,86.17
2018-02-20T04:02:45.314Z,86.40
2018-02-20T04:05:13.694Z,86.83
2018-02-20T04:07:42.040Z,87.23
2018-02-20T04:10:10.437Z,87.46
2018-02-20T04:12:38.827Z,87.55
2018-02-20T04:15:07.156Z,87.63
2018-02-20T04:17:35.508Z,87.75
2018-02-20T04:20:03.837Z,88.00
2018-02-20T04:22:32.230Z,87.78
2018-02-20T04:25:00.550Z,87.33
2018-02-20T04:27:28.986Z,87.11
2018-02-20T04:29:57.362Z,86.70
2018-02-20T04:32:25.705Z,86.86
2018-02-20T04:34:54.138Z,87.10
2018-02-20T04:37:22.598Z,87.72
2018-02-20T04:39:50.981Z,88.35
2018-02-20T04:42:19.326Z,88.83
2018-02-20T04:44:47.662Z,88.87
2018-02-20T04:47:16.110Z,88.86
2018-02-20T04:49:44.446Z,88.46
2018-02-20T04:52:12.857Z,88.11
2018-02-20T04:54:41.241Z,88.25
2018-02-20T04:57:09.590Z,88.91
2018-02-20T04:59:38.003Z,89.41
2018-02-20T05:02:06.360Z,89.49
2018-02-20T05:04:34.687Z,89.43
2018-02-20T05:07:03.126Z,89.23
2018-02-20T05:09:31.510Z,89.51
2018-02-20T05:11:59.853Z,89.32
2018-02-20T05:14:28.253Z,89.38
2018-02-20T05:16:56.637Z,89.21
2018-02-20T05:19:25.010Z,89.02
2018-02-20T05:21:53.390Z,89.01
2018-02-20T05:24:21.726Z,89.12
2018-02-20T05:26:50.141Z,89.53
2018-02-20T05:29:18.473Z,89.77
2018-02-20T05:31:46.830Z,89.72
2018-02-20T05:34:15.169Z,89.71
2018-02-20T05:36:43.522Z,89.71
2018-02-20T05:39:11.854Z,90.04
2018-02-20T05:41:40.305Z,90.14
2018-02-20T05:44:08.682Z,90.06
2018-02-20T05:46:37.986Z,89.75
2018-02-20T05:49:06.322Z,89.30
2018-02-20T05:51:34.673Z,88.82
2018-02-20T05:54:03.114Z,88.25
2018-02-20T05:56:31.500Z,88.01
2018-02-20T05:58:59.848Z,87.78
2018-02-20T06:01:28.211Z,87.75
2018-02-20T06:03:56.623Z,87.52
2018-02-20T06:06:25.004Z,87.31
2018-02-20T06:08:53.378Z,87.35
2018-02-20T06:11:21.719Z,87.46
2018-02-20T06:13:50.079Z,87.63
2018-02-20T06:16:18.403Z,87.54
2018-02-20T06:18:46.762Z,86.99
2018-02-20T06:21:15.163Z,86.39
2018-02-20T06:23:43.514Z,85.61
2018-02-20T06:26:12.802Z,85.09
2018-02-20T06:28:41.153Z,84.48
2018-02-20T06:31:09.520Z,84.97
2018-02-20T06:33:38.075Z,85.04
2018-02-20T06:36:07.346Z,84.32
2018-02-20T06:38:35.854Z,89.65
2018-02-20T06:41:04.186Z,89.94
2018-02-20T06:43:32.621Z,86.95
2018-02-20T06:46:01.869Z,83.90
2018-02-20T06:48:30.213Z,82.81
2018-02-20T06:50:58.542Z,82.67
2018-02-20T06:53:26.898Z,83.05
2018-02-20T06:55:55.221Z,83.25
2018-02-20T06:58:23.579Z,84.11
2018-02-20T07:00:51.918Z,85.11
2018-02-20T07:03:20.279Z,85.43
2018-02-20T07:05:48.606Z,86.22
2018-02-20T07:08:17.750Z,86.86
2018-02-20T07:10:46.078Z,86.95
2018-02-20T07:13:14.438Z,87.61
2018-02-20T07:15:42.774Z,88.51
2018-02-20T07:18:11.125Z,89.36
2018-02-20T07:20:39.457Z,89.65
2018-02-20T07:23:07.820Z,89.81
2018-02-20T07:25:36.155Z,89.61
2018-02-20T07:28:04.511Z,89.52
2018-02-20T07:30:32.852Z,89.62
2018-02-20T07:33:01.201Z,90.23
2018-02-20T07:35:29.537Z,90.04
2018-02-20T07:37:57.894Z,89.82
2018-02-20T07:40:26.228Z,89.42
2018-02-20T07:42:54.578Z,89.33
2018-02-20T07:45:22.910Z,89.32
2018-02-20T07:47:51.270Z,89.13
2018-02-20T07:50:19.610Z,89.16
2018-02-20T07:52:47.962Z,89.16
2018-02-20T07:55:16.298Z,89.10
2018-02-20T07:57:44.650Z,89.45
2018-02-20T08:00:12.990Z,89.37
2018-02-20T08:02:41.329Z,89.44
2018-02-20T08:05:09.694Z,89.62
2018-02-20T08:07:38.030Z,89.70
2018-02-20T08:10:06.958Z,90.19
2018-02-20T08:12:35.310Z,90.69
2018-02-20T08:15:03.669Z,90.76
2018-02-20T08:17:32.001Z,90.80
2018-02-20T08:20:00.362Z,90.88
2018-02-20T08:22:28.693Z,91.00
2018-02-20T08:24:57.061Z,90.91
2018-02-20T08:27:25.437Z,90.42
2018-02-20T08:29:53.778Z,90.19
2018-02-20T08:32:22.131Z,90.67
2018-02-20T08:34:50.483Z,90.75
2018-02-20T08:37:18.841Z,90.50
2018-02-20T08:39:47.197Z,90.26
2018-02-20T08:42:15.534Z,90.09
2018-02-20T08:44:43.881Z,90.12
2018-02-20T08:47:12.211Z,90.33
2018-02-20T08:49:41.454Z,90.39
2018-02-20T08:52:09.781Z,89.96
2018-02-20T08:54:38.131Z,89.90
2018-02-20T08:57:06.461Z,89.79
2018-02-20T08:59:34.822Z,89.73
2018-02-20T09:02:03.154Z,89.41
2018-02-20T09:04:31.507Z,89.13
2018-02-20T09:06:59.829Z,89.19
2018-02-20T09:09:28.182Z,88.99
2018-02-20T09:11:56.511Z,88.90
2018-02-20T09:14:24.854Z,88.85
2018-02-20T09:16:53.186Z,88.51
2018-02-20T09:19:21.538Z,88.08
2018-02-20T09:21:49.866Z,87.90
2018-02-20T09:24:18.215Z,87.30
2018-02-20T09:26:46.543Z,87.24
2018-02-20T09:29:15.790Z,86.94
2018-02-20T09:31:44.136Z,86.96
2018-02-20T09:34:12.469Z,86.75
2018-02-20T09:36:40.828Z,85.95
2018-02-20T09:39:09.145Z,84.81
2018-02-20T09:41:37.470Z,84.61
2018-02-20T09:44:05.817Z,84.33
2018-02-20T09:46:34.152Z,84.46
2018-02-20T09:49:03.426Z,84.65
2018-02-20T09:51:31.759Z,83.18
2018-02-20T09:54:00.103Z,83.67
2018-02-20T09:56:28.443Z,82.58
2018-02-20T09:58:56.786Z,82.47
2018-02-20T10:01:25.110Z,82.66
2018-02-20T10:03:53.470Z,81.62
2018-02-20T10:06:21.798Z,81.55
2018-02-20T10:08:50.947Z,81.43
2018-02-20T10:11:19.290Z,79.69
2018-02-20T10:13:47.623Z,78.95
2018-02-20T10:16:15.970Z,79.31
2018-02-20T10:18:44.298Z,78.66
2018-02-20T10:21:12.657Z,78.46
2018-02-20T10:23:40.981Z,78.05
2018-02-20T10:26:09.336Z,76.69
2018-02-20T10:28:37.662Z,77.42
2018-02-20T10:31:06.018Z,77.96
2018-02-20T10:33:34.337Z,77.76
2018-02-20T10:36:02.695Z,76.75
2018-02-20T10:38:31.022Z,76.47
2018-02-20T10:40:59.446Z,75.76
2018-02-20T10:43:27.778Z,75.02
2018-02-20T10:45:56.139Z,74.88
2018-02-20T10:48:25.300Z,74.89
2018-02-20T10:50:53.642Z,74.47
2018-02-20T10:53:21.977Z,73.90
2018-02-20T10:55:51.402Z,73.25
2018-02-20T10:58:19.746Z,73.09
2018-02-20T11:00:48.121Z,72.39
2018-02-20T11:03:16.455Z,72.56
2018-02-20T11:05:44.850Z,73.04
2018-02-20T11:08:13.186Z,72.83
2018-02-20T11:10:41.545Z,72.08
2018-02-20T11:13:09.878Z,71.87
2018-02-20T11:15:39.067Z,72.00
2018-02-20T11:18:07.395Z,71.81
2018-02-20T11:20:35.746Z,70.24
2018-02-20T11:23:04.070Z,70.21
2018-02-20T11:25:32.509Z,70.15
2018-02-20T11:28:00.829Z,69.95
2018-02-20T11:30:29.183Z,70.46
2018-02-20T11:32:57.510Z,70.26
2018-02-20T11:35:25.874Z,70.55
2018-02-20T11:37:54.207Z,69.75
2018-02-20T11:40:22.554Z,69.66
2018-02-20T11:42:50.882Z,71.53
2018-02-20T11:45:19.234Z,70.45
2018-02-20T11:47:47.557Z,70.61
2018-02-20T11:50:15.906Z,70.53
2018-02-20T11:52:44.240Z,71.20
2018-02-20T11:55:12.590Z,69.96
2018-02-20T11:57:40.917Z,70.64
2018-02-20T12:00:09.275Z,70.73
2018-02-20T12:02:37.606Z,70.44
2018-02-20T12:05:05.954Z,69.50
2018-02-20T12:07:35.094Z,69.19
2018-02-20T12:10:03.447Z,69.01
2018-02-20T12:12:31.774Z,68.43
2018-02-20T12:15:00.099Z,69.36
2018-02-20T12:17:28.514Z,69.77
2018-02-20T12:19:56.830Z,68.02
2018-02-20T12:22:25.175Z,68.87
2018-02-20T12:24:53.507Z,67.85
2018-02-20T12:27:22.026Z,66.27
2018-02-20T12:29:50.362Z,66.80
2018-02-20T12:32:18.708Z,67.43
2018-02-20T12:34:47.029Z,67.13
2018-02-20T12:37:15.386Z,63.48
2018-02-20T12:39:43.730Z,64.49
2018-02-20T12:42:12.082Z,63.35
2018-02-20T12:44:40.407Z,63.69
2018-02-20T12:47:09.762Z,64.11
2018-02-20T12:49:38.085Z,64.84
2018-02-20T12:52:06.438Z,64.83
2018-02-20T12:54:34.769Z,66.21
2018-02-20T12:57:03.114Z,66.17
2018-02-20T12:59:31.439Z,64.33
2018-02-20T13:01:59.792Z,64.85
2018-02-20T13:04:28.123Z,65.30
2018-02-20T13:06:56.482Z,63.55
2018-02-20T13:09:24.814Z,64.06
2018-02-20T13:11:53.162Z,64.44
2018-02-20T13:14:21.498Z,64.76
2018-02-20T13:16:49.854Z,63.91
2018-02-20T13:19:18.178Z,63.37
2018-02-20T13:21:46.534Z,63.47
2018-02-20T13:24:14.862Z,63.34
2018-02-20T13:26:44.111Z,61.99
2018-02-20T13:29:12.434Z,62.34
2018-02-20T13:31:40.786Z,63.69
2018-02-20T13:34:09.126Z,63.51
2018-02-20T13:36:38.463Z,62.47
2018-02-20T13:39:06.792Z,62.07
2018-02-20T13:41:35.136Z,62.86
2018-02-20T13:44:03.475Z,62.59
2018-02-20T13:46:31.822Z,63.55
2018-02-20T13:49:00.150Z,64.53
2018-02-20T13:51:28.503Z,64.23
2018-02-20T13:53:56.826Z,62.87
2018-02-20T13:56:25.178Z,63.40
2018-02-20T13:58:53.502Z,62.75
2018-02-20T14:01:21.854Z,63.67
2018-02-20T14:03:50.270Z,63.11
2018-02-20T14:06:18.603Z,62.98
2018-02-20T14:08:46.926Z,60.99
2018-02-20T14:11:15.278Z,61.04
2018-02-20T14:13:43.610Z,60.73
2018-02-20T14:16:11.964Z,61.81
2018-02-20T14:18:40.333Z,62.50
2018-02-20T14:21:08.794Z,62.27
2018-02-20T14:23:37.142Z,62.24
2018-02-20T14:26:06.406Z,62.17
2018-02-20T14:28:34.953Z,62.56
2018-02-20T14:31:03.311Z,63.23
2018-02-20T14:33:31.873Z,62.84
2018-02-20T14:36:01.158Z,60.77
2018-02-20T14:38:29.511Z,60.47
2018-02-20T14:40:57.846Z,61.43
2018-02-20T14:43:26.194Z,60.50
2018-02-20T14:45:55.410Z,60.61
2018-02-20T14:48:24.893Z,59.85
2018-02-20T14:50:53.205Z,60.44
2018-02-20T14:53:21.563Z,60.46
2018-02-20T14:55:54.825Z,60.14
2018-02-20T14:58:25.559Z,60.18
2018-02-20T15:00:53.869Z,60.30
2018-02-20T15:03:22.433Z,60.73
2018-02-20T15:05:51.082Z,61.43
2018-02-20T15:08:19.432Z,61.62
2018-02-20T15:10:47.762Z,61.52
2018-02-20T15:13:16.110Z,61.05
2018-02-20T15:15:44.434Z,61.34
2018-02-20T15:18:12.806Z,62.23
2018-02-20T15:20:41.137Z,61.98
2018-02-20T15:23:09.747Z,61.81
2018-02-20T15:25:38.108Z,62.60
2018-02-20T15:28:08.671Z,62.44
2018-02-20T15:30:43.647Z,62.75
2018-02-20T15:33:11.954Z,63.55
2018-02-20T15:35:42.915Z,63.03
2018-02-20T15:38:11.285Z,63.27
2018-02-20T15:40:39.615Z,63.16
2018-02-20T15:43:07.979Z,64.07
2018-02-20T15:45:36.306Z,64.25
2018-02-20T15:48:05.059Z,64.37
2018-02-20T15:50:33.478Z,64.33
2018-02-20T15:53:01.860Z,64.87
2018-02-20T15:55:30.234Z,65.01
2018-02-20T15:57:58.880Z,64.35
2018-02-20T16:00:27.311Z,65.54
2018-02-20T16:02:55.834Z,66.12
2018-02-20T16:05:24.175Z,66.69
2018-02-20T16:07:52.531Z,67.63
2018-02-20T16:10:20.854Z,67.04
2018-02-20T16:12:49.204Z,67.01
2018-02-20T16:15:17.537Z,67.51
2018-02-20T16:17:45.942Z,67.74
2018-02-20T16:20:14.370Z,67.77
2018-02-20T16:22:42.797Z,67.87
2018-02-20T16:25:11.125Z,67.77
2018-02-20T16:27:39.555Z,67.92
2018-02-20T16:30:07.922Z,68.21
2018-02-20T16:32:36.279Z,68.22
2018-02-20T16:35:04.680Z,67.97
2018-02-20T16:37:33.014Z,68.10
2018-02-20T16:40:01.384Z,68.10
2018-02-20T16:42:29.711Z,68.17
2018-02-20T16:44:58.059Z,68.34
2018-02-20T16:47:26.482Z,68.44
2018-02-20T16:49:54.835Z,68.54
2018-02-20T16:52:23.230Z,68.52
2018-02-20T16:54:51.823Z,68.62
2018-02-20T16:57:20.176Z,68.75
2018-02-20T16:59:48.542Z,68.81
2018-02-20T17:02:16.934Z,68.65
2018-02-20T17:04:45.309Z,69.26
2018-02-20T17:07:13.689Z,68.82
2018-02-20T17:09:42.064Z,69.22
2018-02-20T17:12:10.407Z,69.50
2018-02-20T17:14:38.838Z,69.47
2018-02-20T17:17:07.186Z,69.86
2018-02-20T17:19:35.578Z,69.58
2018-02-20T17:22:03.910Z,69.72
2018-02-20T17:24:32.454Z,69.53
2018-02-20T17:27:00.915Z,69.95
2018-02-20T17:29:29.432Z,70.98
2018-02-20T17:31:57.870Z,71.28
2018-02-20T17:34:26.245Z,71.46
2018-02-20T17:36:54.584Z,72.25
2018-02-20T17:39:22.933Z,72.38
2018-02-20T17:41:51.385Z,72.13
2018-02-20T17:44:19.743Z,72.49
2018-02-20T17:46:48.138Z,72.37
2018-02-20T17:49:16.499Z,72.46
2018-02-20T17:51:44.828Z,72.67
2018-02-20T17:54:13.258Z,72.81
2018-02-20T17:56:41.667Z,73.31
2018-02-20T17:59:10.035Z,73.52
2018-02-20T18:01:38.353Z,73.91
2018-02-20T18:04:06.774Z,74.14
2018-02-20T18:06:35.160Z,74.01
2018-02-20T18:09:03.514Z,74.26
2018-02-20T18:11:31.836Z,74.71
2018-02-20T18:14:00.387Z,75.17
2018-02-20T18:16:29.651Z,75.03
2018-02-20T18:18:58.070Z,74.75
2018-02-20T18:21:26.406Z,74.69
2018-02-20T18:23:54.758Z,74.57
2018-02-20T18:26:24.119Z,74.80
2018-02-20T18:28:52.475Z,74.55
2018-02-20T18:31:20.816Z,74.51
2018-02-20T18:33:49.242Z,74.81
2018-02-20T18:36:17.632Z,74.94
2018-02-20T18:38:45.991Z,79.71
2018-02-20T18:41:14.317Z,73.98
2018-02-20T18:43:42.754Z,73.32
2018-02-20T18:46:11.114Z,73.31
2018-02-20T18:48:39.598Z,73.52
2018-02-20T18:51:08.027Z,73.67
2018-02-20T18:53:36.370Z,73.72
2018-02-20T18:56:06.623Z,74.09
2018-02-20T18:58:38.579Z,74.17
2018-02-20T19:01:10.604Z,74.19
2018-02-20T19:03:38.925Z,74.91
2018-02-20T19:06:08.266Z,74.89
2018-02-20T19:08:36.658Z,74.72
2018-02-20T19:11:05.045Z,74.30
2018-02-20T19:13:33.383Z,73.91
2018-02-20T19:16:02.716Z,74.17
2018-02-20T19:18:31.047Z,74.06
2018-02-20T19:20:59.409Z,74.47
2018-02-20T19:23:27.734Z,74.18
2018-02-20T19:25:57.033Z,74.22
2018-02-20T19:28:25.369Z,74.67
2018-02-20T19:30:53.806Z,75.24
2018-02-20T19:33:22.182Z,76.01
2018-02-20T19:35:51.162Z,76.55
2018-02-20T19:38:19.503Z,78.27
2018-02-20T19:40:47.930Z,76.34
2018-02-20T19:43:16.962Z,75.50
2018-02-20T19:45:45.315Z,75.68
2018-02-20T19:48:13.674Z,75.77
2018-02-20T19:50:42.052Z,75.95
2018-02-20T19:53:22.162Z,75.65
2018-02-20T19:55:53.875Z,75.54
2018-02-20T19:58:22.239Z,75.07
2018-02-20T20:00:50.594Z,74.39
2018-02-20T20:03:18.971Z,73.74
2018-02-20T20:05:47.371Z,73.57
2018-02-20T20:08:15.702Z,73.54
2018-02-20T20:10:44.295Z,73.59
2018-02-20T20:13:12.626Z,73.65
2018-02-20T20:15:41.083Z,73.69
2018-02-20T20:18:09.436Z,73.66
2018-02-20T20:20:37.847Z,73.78
2018-02-20T20:23:06.213Z,74.40
2018-02-20T20:25:34.590Z,76.85
2018-02-20T20:28:02.953Z,78.20
2018-02-20T20:30:31.966Z,78.10
2018-02-20T20:33:00.307Z,77.75
2018-02-20T20:35:28.717Z,78.70
2018-02-20T20:37:57.054Z,78.49
2018-02-20T20:40:25.414Z,78.06
2018-02-20T20:42:53.846Z,77.83
2018-02-20T20:45:22.207Z,77.08
2018-02-20T20:47:50.605Z,76.38
2018-02-20T20:50:19.771Z,76.44
2018-02-20T20:52:48.106Z,78.21
2018-02-20T20:55:16.483Z,76.43
2018-02-20T20:57:44.826Z,75.33
2018-02-20T21:00:13.490Z,74.77
2018-02-20T21:02:41.825Z,74.87
2018-02-20T21:05:10.269Z,75.12
2018-02-20T21:07:38.602Z,76.46
2018-02-20T21:10:07.510Z,76.97
2018-02-20T21:12:35.914Z,76.83
2018-02-20T21:15:04.341Z,77.98
2018-02-20T21:17:32.770Z,78.72
2018-02-20T21:20:01.147Z,78.44
2018-02-20T21:22:29.521Z,78.40
2018-02-20T21:24:58.618Z,78.49
2018-02-20T21:27:26.978Z,79.06
2018-02-20T21:29:55.320Z,78.91
2018-02-20T21:32:23.758Z,78.73
2018-02-20T21:34:52.082Z,79.58
2018-02-20T21:37:20.454Z,79.83
2018-02-20T21:39:48.874Z,79.80
2018-02-20T21:42:17.266Z,79.44
2018-02-20T21:44:45.643Z,78.66
2018-02-20T21:47:13.999Z,78.30
2018-02-20T21:49:42.334Z,78.49
2018-02-20T21:52:11.379Z,78.40
2018-02-20T21:54:39.714Z,78.61
2018-02-20T21:57:08.078Z,78.47
2018-02-20T21:59:36.410Z,78.11
2018-02-20T22:02:04.771Z,77.77
2018-02-20T22:04:33.110Z,77.41
2018-02-20T22:07:01.474Z,77.17
2018-02-20T22:09:29.854Z,77.33
2018-02-20T22:11:58.341Z,77.84
2018-02-20T22:14:26.682Z,77.85
2018-02-20T22:16:55.030Z,77.73
2018-02-20T22:19:23.361Z,77.62
2018-02-20T22:21:51.802Z,77.22
2018-02-20T22:24:20.215Z,77.13
2018-02-20T22:26:48.662Z,76.95
2018-02-20T22:29:16.994Z,76.68
2018-02-20T22:31:45.428Z,76.52
2018-02-20T22:34:13.794Z,76.36
2018-02-20T22:36:42.166Z,76.31
2018-02-20T22:39:10.494Z,76.22
2018-02-20T22:41:38.841Z,75.99
2018-02-20T22:44:07.178Z,76.11
2018-02-20T22:46:35.538Z,75.98
2018-02-20T22:49:03.957Z,75.84
2018-02-20T22:51:32.331Z,75.91
2018-02-20T22:54:00.658Z,76.02
2018-02-20T22:56:29.030Z,76.43
2018-02-20T22:58:57.385Z,76.51
2018-02-20T23:01:25.730Z,77.50
2018-02-20T23:03:54.072Z,78.91
2018-02-20T23:06:22.439Z,80.44
2018-02-20T23:08:50.809Z,81.02
2018-02-20T23:14:22.951Z,80.58
2018-02-20T23:16:51.302Z,80.10
2018-02-20T23:19:19.684Z,79.78
2018-02-20T23:21:48.062Z,79.47
2018-02-20T23:24:16.466Z,79.69
2018-02-20T23:26:44.850Z,80.05
2018-02-20T23:29:13.217Z,80.44
2018-02-20T23:31:41.570Z,80.32
2018-02-20T23:34:09.971Z,79.82
2018-02-20T23:36:38.343Z,79.36
2018-02-20T23:39:06.729Z,79.11
2018-02-20T23:41:35.108Z,79.08
2018-02-20T23:44:03.437Z,78.90
2018-02-20T23:46:31.762Z,78.60
2018-02-20T23:49:00.138Z,78.72
2018-02-20T23:51:34.106Z,79.68
2018-02-20T23:54:02.461Z,80.17
2018-02-20T23:56:30.894Z,80.16
2018-02-20T23:58:59.278Z,80.54
